Time;durP1;ratioP1;P1;durP2;ratioP2;P2;SDS_P1;SDS_P2;PMS_P1;PMS_P2;Temp;Humidity;BMP_temperature;BMP_pressure;BME280_temperature;BME280_humidity;BME280_pressure;Samples;Min_cycle;Max_cycle;Signal;HPM_P1;HPM_P2
2021/04/17 00:02:16;;;;;;;5.23;4.53;;;7.30;66.50;;;;;;5049205;28;20457;-49
2021/04/17 00:04:43;;;;;;;6.70;4.60;;;7.30;66.60;;;;;;5045936;28;20462;-49
2021/04/17 00:07:11;;;;;;;5.60;4.40;;;7.30;66.60;;;;;;5048998;28;20463;-49
2021/04/17 00:09:38;;;;;;;7.13;4.13;;;7.30;66.70;;;;;;5064839;28;20490;-49
2021/04/17 00:12:13;;;;;;;5.63;4.90;;;7.30;66.80;;;;;;5063841;28;20465;-49
2021/04/17 00:14:41;;;;;;;5.00;3.97;;;7.30;66.80;;;;;;5046077;28;20493;-49
2021/04/17 00:17:13;;;;;;;4.80;4.40;;;7.20;66.70;;;;;;5050239;28;20533;-49
2021/04/17 00:19:42;;;;;;;5.40;4.30;;;7.30;66.70;;;;;;5050898;28;20458;-49
2021/04/17 00:22:09;;;;;;;5.47;4.47;;;7.20;66.80;;;;;;5048835;28;20459;-49
2021/04/17 00:24:35;;;;;;;4.93;4.43;;;7.20;66.80;;;;;;5046964;28;21002;-48
2021/04/17 00:27:03;;;;;;;3.80;3.40;;;7.20;66.80;;;;;;5062441;28;20847;-49
2021/04/17 00:29:30;;;;;;;4.50;4.10;;;7.20;66.80;;;;;;5049097;28;20504;-49
2021/04/17 00:31:57;;;;;;;5.73;4.60;;;7.20;66.90;;;;;;5047638;28;20466;-49
2021/04/17 00:34:24;;;;;;;5.53;5.03;;;7.20;66.90;;;;;;5048471;28;20540;-49
2021/04/17 00:36:50;;;;;;;5.77;4.67;;;7.20;66.90;;;;;;5050677;28;20455;-49
2021/04/17 00:39:16;;;;;;;4.67;4.27;;;7.20;67.00;;;;;;5049345;28;20458;-49
2021/04/17 00:41:43;;;;;;;6.27;4.40;;;7.20;67.00;;;;;;5049412;28;20959;-49
2021/04/17 00:44:09;;;;;;;8.30;5.33;;;7.10;67.10;;;;;;5046619;28;20455;-49
2021/04/17 00:46:36;;;;;;;4.83;4.33;;;7.10;67.20;;;;;;5048583;28;20856;-49
2021/04/17 00:49:04;;;;;;;6.60;4.90;;;7.10;67.20;;;;;;5048624;28;20466;-49
2021/04/17 00:51:31;;;;;;;7.10;4.43;;;7.10;67.30;;;;;;5044918;28;20462;-49
2021/04/17 00:53:57;;;;;;;6.60;5.13;;;7.10;67.40;;;;;;5048577;28;20475;-49
2021/04/17 00:56:23;;;;;;;4.47;4.07;;;7.10;67.30;;;;;;5049942;28;20541;-49
2021/04/17 00:58:50;;;;;;;7.40;4.87;;;7.10;67.20;;;;;;5048252;28;20545;-49
2021/04/17 01:01:16;;;;;;;5.10;4.60;;;7.10;67.40;;;;;;5046762;28;20459;-49
2021/04/17 01:04:21;;;;;;;5.23;4.73;;;7.00;67.50;;;;;;5048041;28;20469;-49
2021/04/17 01:06:53;;;;;;;6.17;4.90;;;7.00;67.70;;;;;;5045394;28;20602;-49
2021/04/17 01:09:23;;;;;;;6.70;5.20;;;7.00;67.70;;;;;;5047474;28;20466;-49
2021/04/17 01:11:55;;;;;;;6.07;5.17;;;6.90;67.90;;;;;;5047149;28;20837;-49
2021/04/17 01:14:22;;;;;;;4.50;4.10;;;6.90;68.00;;;;;;5040891;28;20498;-49
2021/04/17 01:16:49;;;;;;;8.30;4.67;;;6.90;68.00;;;;;;5045730;28;20546;-49
2021/04/17 01:19:30;;;;;;;4.47;4.17;;;6.90;68.00;;;;;;5060747;28;20458;-49
2021/04/17 01:21:57;;;;;;;5.43;4.80;;;6.80;68.10;;;;;;5046465;28;20490;-49
2021/04/17 01:24:27;;;;;;;4.73;4.00;;;6.80;68.30;;;;;;5046058;28;20467;-49
2021/04/17 01:26:54;;;;;;;5.00;4.50;;;6.80;68.40;;;;;;5061209;28;20577;-49
2021/04/17 01:29:20;;;;;;;7.30;4.70;;;6.70;68.50;;;;;;5047532;28;20470;-49
2021/04/17 01:31:47;;;;;;;6.83;4.93;;;6.70;68.60;;;;;;5046165;28;21179;-49
2021/04/17 01:34:13;;;;;;;5.90;4.63;;;6.70;68.70;;;;;;5046821;28;20577;-49
2021/04/17 01:36:40;;;;;;;8.87;4.47;;;6.70;68.90;;;;;;5045100;28;20837;-49
2021/04/17 01:39:09;;;;;;;5.03;4.50;;;6.70;68.90;;;;;;5048231;28;20474;-49
2021/04/17 01:41:44;;;;;;;6.10;5.43;;;6.70;69.00;;;;;;5046487;28;20462;-49
2021/04/17 01:44:26;;;;;;;6.13;5.10;;;6.70;69.10;;;;;;5045978;28;20464;-49
2021/04/17 01:47:05;;;;;;;6.83;5.57;;;6.60;69.20;;;;;;5046160;28;20462;-49
2021/04/17 01:49:36;;;;;;;8.80;4.53;;;6.60;69.30;;;;;;5047269;28;20470;-49
2021/04/17 01:52:04;;;;;;;6.50;4.50;;;6.60;69.40;;;;;;5046439;28;20459;-49
2021/04/17 01:54:43;;;;;;;4.63;4.20;;;6.60;69.40;;;;;;5045707;28;20478;-49
2021/04/17 01:57:14;;;;;;;11.70;5.77;;;6.60;69.50;;;;;;5044940;28;20454;-49
2021/04/17 01:59:40;;;;;;;5.23;4.70;;;6.50;69.40;;;;;;5046493;28;20450;-49
2021/04/17 02:02:07;;;;;;;4.97;4.50;;;6.50;69.50;;;;;;5045563;28;20516;-49
2021/04/17 02:04:35;;;;;;;5.33;4.60;;;6.50;69.50;;;;;;5045693;28;20458;-48
2021/04/17 02:07:02;;;;;;;6.73;5.10;;;6.50;69.60;;;;;;5048100;28;20859;-49
2021/04/17 02:09:29;;;;;;;10.43;4.97;;;6.50;69.70;;;;;;5045432;28;20464;-49
2021/04/17 02:11:55;;;;;;;6.13;4.90;;;6.40;69.80;;;;;;5047596;28;21085;-49
2021/04/17 02:14:22;;;;;;;4.93;4.50;;;6.40;69.80;;;;;;5045000;28;20493;-49
2021/04/17 02:16:52;;;;;;;5.83;5.23;;;6.40;69.80;;;;;;5046296;28;20491;-49
2021/04/17 02:19:26;;;;;;;5.20;4.77;;;6.40;70.00;;;;;;5062753;28;20894;-49
2021/04/17 02:21:57;;;;;;;7.67;5.63;;;6.40;70.10;;;;;;5045830;28;20459;-48
2021/04/17 02:24:28;;;;;;;5.47;4.97;;;6.40;70.50;;;;;;5049093;28;20955;-47
2021/04/17 02:26:55;;;;;;;6.40;5.80;;;6.40;70.50;;;;;;5043987;28;20467;-47
2021/04/17 02:29:22;;;;;;;5.30;4.80;;;6.30;70.60;;;;;;5046028;28;20462;-46
2021/04/17 02:31:48;;;;;;;5.50;4.80;;;6.30;70.60;;;;;;5047718;28;20450;-47
2021/04/17 02:34:16;;;;;;;5.70;5.07;;;6.30;70.70;;;;;;5055462;28;21027;-47
2021/04/17 02:36:42;;;;;;;14.90;9.23;;;6.30;70.80;;;;;;5044897;28;20790;-47
2021/04/17 02:39:09;;;;;;;12.97;8.37;;;6.30;70.70;;;;;;5047012;28;20826;-47
2021/04/17 02:41:36;;;;;;;7.57;6.23;;;6.30;70.80;;;;;;5044325;28;21604;-47
2021/04/17 02:44:03;;;;;;;7.97;5.97;;;6.30;71.00;;;;;;5031057;28;20466;-47
2021/04/17 02:46:30;;;;;;;6.37;5.27;;;6.30;71.00;;;;;;5047466;28;20446;-47
2021/04/17 02:48:57;;;;;;;5.90;5.33;;;6.30;71.10;;;;;;5047021;28;20471;-47
2021/04/17 02:51:23;;;;;;;6.40;5.17;;;6.30;71.10;;;;;;5044620;28;20721;-47
2021/04/17 02:53:51;;;;;;;6.53;4.97;;;6.30;71.10;;;;;;5057363;28;20495;-47
2021/04/17 02:56:19;;;;;;;6.43;5.17;;;6.30;71.10;;;;;;5046653;28;20728;-47
2021/04/17 02:58:45;;;;;;;6.50;4.80;;;6.30;71.00;;;;;;5045979;28;20490;-47
2021/04/17 03:01:12;;;;;;;7.87;5.50;;;6.30;70.80;;;;;;5044065;28;20446;-47
2021/04/17 03:03:38;;;;;;;7.03;5.57;;;6.30;70.80;;;;;;5047375;28;20451;-47
2021/04/17 03:06:05;;;;;;;4.93;4.50;;;6.30;71.00;;;;;;5042405;28;20963;-47
2021/04/17 03:08:32;;;;;;;5.83;5.23;;;6.30;71.10;;;;;;5044966;28;20457;-47
2021/04/17 03:10:59;;;;;;;8.20;5.90;;;6.30;71.20;;;;;;5046520;28;20478;-47
2021/04/17 03:13:26;;;;;;;7.70;5.40;;;6.30;71.20;;;;;;5045543;28;20462;-47
2021/04/17 03:15:53;;;;;;;8.57;5.27;;;6.30;71.30;;;;;;5044553;28;21137;-47
2021/04/17 03:18:19;;;;;;;9.17;5.07;;;6.30;71.40;;;;;;5045003;28;20455;-47
2021/04/17 03:20:47;;;;;;;11.63;5.03;;;6.30;71.40;;;;;;5045622;28;20471;-47
2021/04/17 03:23:14;;;;;;;7.90;4.67;;;6.30;71.40;;;;;;5046345;28;20962;-47
2021/04/17 03:25:40;;;;;;;7.07;4.90;;;6.30;71.40;;;;;;5041621;28;20462;-47
2021/04/17 03:28:07;;;;;;;6.20;4.80;;;6.30;71.40;;;;;;5044633;28;20507;-47
2021/04/17 03:30:33;;;;;;;4.50;4.10;;;6.40;71.70;;;;;;5043699;28;20473;-47
2021/04/17 03:33:00;;;;;;;5.63;4.70;;;6.50;71.30;;;;;;5042071;28;20463;-47
2021/04/17 03:35:29;;;;;;;5.83;5.00;;;6.50;71.20;;;;;;5045342;28;20836;-47
2021/04/17 03:37:56;;;;;;;6.10;4.40;;;6.50;71.10;;;;;;5043656;28;20450;-47
2021/04/17 03:40:22;;;;;;;4.73;4.20;;;6.50;71.20;;;;;;5059761;28;20461;-47
2021/04/17 03:42:49;;;;;;;6.97;4.93;;;6.40;71.30;;;;;;5044752;28;20582;-47
2021/04/17 03:45:16;;;;;;;6.20;5.60;;;6.50;71.40;;;;;;5042303;28;20901;-47
2021/04/17 03:47:43;;;;;;;7.17;4.63;;;6.50;71.40;;;;;;5048296;28;20529;-47
2021/04/17 03:50:11;;;;;;;4.67;4.20;;;6.50;71.30;;;;;;5048152;28;20462;-47
2021/04/17 03:52:37;;;;;;;5.70;5.10;;;6.50;71.40;;;;;;5046096;28;20462;-47
2021/04/17 03:55:06;;;;;;;5.57;4.40;;;6.50;71.40;;;;;;5049792;28;20492;-47
2021/04/17 03:57:33;;;;;;;5.47;4.40;;;6.50;71.30;;;;;;5048464;28;20461;-47
2021/04/17 03:59:59;;;;;;;6.00;4.50;;;6.50;71.30;;;;;;5050202;28;20464;-47
2021/04/17 04:02:25;;;;;;;4.93;4.30;;;6.50;71.50;;;;;;5047818;28;20451;-47
2021/04/17 04:04:52;;;;;;;6.80;5.03;;;6.60;71.50;;;;;;5049535;28;20520;-47
2021/04/17 04:07:18;;;;;;;6.83;6.23;;;6.60;71.40;;;;;;5049283;28;20447;-47
2021/04/17 04:09:45;;;;;;;6.83;5.60;;;6.60;71.50;;;;;;5047989;28;20863;-47
2021/04/17 04:12:11;;;;;;;7.40;5.73;;;6.60;71.50;;;;;;5049009;28;20461;-47
2021/04/17 04:14:37;;;;;;;6.33;4.50;;;6.60;71.50;;;;;;5048706;28;20525;-47
2021/04/17 04:17:04;;;;;;;6.10;5.10;;;6.70;71.20;;;;;;5040861;28;20482;-47
2021/04/17 04:19:30;;;;;;;6.30;5.67;;;6.70;71.10;;;;;;5048665;28;20959;-47
2021/04/17 04:21:58;;;;;;;7.30;5.13;;;6.60;71.10;;;;;;5048189;28;20458;-47
2021/04/17 04:24:25;;;;;;;5.90;5.30;;;6.50;71.20;;;;;;5048189;28;20549;-47
2021/04/17 04:26:51;;;;;;;6.57;5.10;;;6.50;71.20;;;;;;5064257;28;20458;-47
2021/04/17 04:29:17;;;;;;;5.97;4.70;;;6.50;71.40;;;;;;5045872;28;20462;-47
2021/04/17 04:31:43;;;;;;;7.10;5.37;;;6.40;71.40;;;;;;5046733;28;20475;-47
2021/04/17 04:34:10;;;;;;;6.07;4.33;;;6.40;71.60;;;;;;5043953;28;20855;-47
2021/04/17 04:36:36;;;;;;;6.23;5.47;;;6.30;71.60;;;;;;5047936;28;20493;-47
2021/04/17 04:39:04;;;;;;;4.93;4.50;;;6.30;71.70;;;;;;5046483;28;20460;-47
2021/04/17 04:41:34;;;;;;;7.03;5.40;;;6.30;71.80;;;;;;5047327;28;20469;-47
2021/04/17 04:44:03;;;;;;;7.17;5.43;;;6.30;72.00;;;;;;5048681;28;20451;-47
2021/04/17 04:46:31;;;;;;;6.03;4.80;;;6.20;72.00;;;;;;5045584;28;20463;-47
2021/04/17 04:48:57;;;;;;;5.30;4.67;;;6.20;72.10;;;;;;5047973;28;20951;-47
2021/04/17 04:51:24;;;;;;;5.70;5.10;;;6.20;72.20;;;;;;5063933;28;20967;-47
2021/04/17 04:53:51;;;;;;;7.60;5.07;;;6.20;72.20;;;;;;5045628;28;20494;-47
2021/04/17 04:56:17;;;;;;;6.10;5.20;;;6.20;72.30;;;;;;5048920;28;20458;-47
2021/04/17 04:58:44;;;;;;;7.43;6.20;;;6.20;72.30;;;;;;5059153;28;20466;-47
2021/04/17 05:01:10;;;;;;;7.90;6.27;;;6.10;72.40;;;;;;5046808;28;20469;-47
2021/04/17 05:03:36;;;;;;;7.97;6.30;;;6.10;72.50;;;;;;5048179;28;20528;-47
2021/04/17 05:06:02;;;;;;;9.03;6.93;;;6.10;72.60;;;;;;5045109;28;20466;-47
2021/04/17 05:08:31;;;;;;;10.60;6.60;;;6.10;72.80;;;;;;5046080;28;20465;-47
2021/04/17 05:10:58;;;;;;;13.70;8.30;;;6.20;72.80;;;;;;5047504;28;20462;-47
2021/04/17 05:13:24;;;;;;;13.40;7.73;;;6.10;72.80;;;;;;5048083;28;20901;-47
2021/04/17 05:15:50;;;;;;;14.70;7.60;;;6.10;72.90;;;;;;5045585;28;20490;-47
2021/04/17 05:18:17;;;;;;;12.00;7.63;;;6.10;72.90;;;;;;5046747;28;20454;-47
2021/04/17 05:20:43;;;;;;;10.93;6.80;;;6.10;72.90;;;;;;5048376;28;20458;-47
2021/04/17 05:23:10;;;;;;;8.00;6.13;;;6.10;73.10;;;;;;5061816;28;20588;-47
2021/04/17 05:25:36;;;;;;;10.57;7.80;;;6.00;73.10;;;;;;5048411;28;20465;-47
2021/04/17 05:28:03;;;;;;;8.77;5.93;;;6.00;73.10;;;;;;5048959;28;20652;-47
2021/04/17 05:30:30;;;;;;;6.70;6.00;;;6.00;73.20;;;;;;5047575;28;20458;-47
2021/04/17 05:32:56;;;;;;;9.10;6.87;;;6.00;73.20;;;;;;5049298;28;20454;-47
2021/04/17 05:35:22;;;;;;;7.80;5.40;;;6.00;73.30;;;;;;5049179;28;20578;-47
2021/04/17 05:37:51;;;;;;;7.23;5.70;;;6.00;73.20;;;;;;5046922;28;20529;-47
2021/04/17 05:40:17;;;;;;;7.40;5.97;;;6.00;73.30;;;;;;5048254;28;20456;-47
2021/04/17 05:42:45;;;;;;;8.97;5.97;;;6.00;73.20;;;;;;5063184;28;20470;-47
2021/04/17 05:45:12;;;;;;;9.30;6.37;;;6.10;72.90;;;;;;5044818;28;20844;-47
2021/04/17 05:47:38;;;;;;;7.40;5.67;;;6.10;72.70;;;;;;5048047;28;20824;-47
2021/04/17 05:50:05;;;;;;;7.30;5.37;;;6.20;72.70;;;;;;5047797;28;20462;-47
2021/04/17 05:52:31;;;;;;;5.90;5.30;;;6.20;72.70;;;;;;5060896;28;20457;-47
2021/04/17 05:54:58;;;;;;;8.80;6.37;;;6.20;72.70;;;;;;5047427;28;20486;-47
2021/04/17 05:57:24;;;;;;;6.70;5.73;;;6.20;72.80;;;;;;5044704;28;20454;-47
2021/04/17 05:59:50;;;;;;;10.53;6.50;;;6.30;72.80;;;;;;5042612;28;20459;-47
2021/04/17 06:02:17;;;;;;;10.33;5.33;;;6.30;72.90;;;;;;5046869;28;20465;-47
2021/04/17 06:04:43;;;;;;;10.23;5.87;;;6.40;72.80;;;;;;5047313;28;21171;-47
2021/04/17 06:07:10;;;;;;;10.30;7.20;;;6.50;72.40;;;;;;5045442;28;20541;-47
2021/04/17 06:09:36;;;;;;;8.43;6.10;;;6.60;72.10;;;;;;5050350;28;20529;-47
2021/04/17 06:12:03;;;;;;;8.20;5.23;;;6.70;71.60;;;;;;5047620;28;20473;-47
2021/04/17 06:14:29;;;;;;;8.07;5.60;;;6.70;71.70;;;;;;5046833;28;20478;-47
2021/04/17 06:16:55;;;;;;;6.57;5.07;;;6.80;71.30;;;;;;5043791;28;20983;-48
2021/04/17 06:19:22;;;;;;;8.07;6.03;;;6.90;71.20;;;;;;5046914;28;20547;-48
2021/04/17 06:21:49;;;;;;;6.20;5.57;;;6.90;71.00;;;;;;5047626;28;20454;-47
2021/04/17 06:24:15;;;;;;;5.80;5.10;;;7.00;71.00;;;;;;5048053;28;20482;-47
2021/04/17 06:26:42;;;;;;;10.33;5.20;;;7.00;71.00;;;;;;5046100;28;20454;-47
2021/04/17 06:29:09;;;;;;;6.33;5.23;;;7.10;71.00;;;;;;5047942;28;20541;-47
2021/04/17 06:31:35;;;;;;;7.17;5.63;;;7.20;69.90;;;;;;5045892;28;20447;-47
2021/04/17 06:34:02;;;;;;;8.43;5.67;;;7.30;69.70;;;;;;5046880;28;20577;-47
2021/04/17 06:36:28;;;;;;;6.97;5.00;;;7.30;69.60;;;;;;5044372;28;20533;-47
2021/04/17 06:38:54;;;;;;;8.03;4.90;;;7.40;69.10;;;;;;5046191;28;20458;-47
2021/04/17 06:41:22;;;;;;;5.07;4.57;;;7.50;68.60;;;;;;5046621;28;20453;-47
2021/04/17 06:43:49;;;;;;;5.50;4.60;;;7.70;67.80;;;;;;5043671;28;21024;-47
2021/04/17 06:46:17;;;;;;;7.00;3.70;;;7.80;66.50;;;;;;5044959;28;20442;-47
2021/04/17 06:48:43;;;;;;;5.50;3.10;;;7.90;65.30;;;;;;5043895;28;20472;-47
2021/04/17 06:51:20;;;;;;;7.00;3.10;;;8.00;64.20;;;;;;5046181;28;21024;-47
2021/04/17 06:53:46;;;;;;;3.43;2.57;;;8.20;63.10;;;;;;5047800;28;20821;-47
2021/04/17 06:56:14;;;;;;;3.67;2.30;;;8.30;60.90;;;;;;5061619;28;20454;-47
2021/04/17 06:58:41;;;;;;;5.27;2.90;;;8.40;59.90;;;;;;5047286;28;20494;-47
2021/04/17 07:01:07;;;;;;;3.63;2.40;;;8.60;59.80;;;;;;5042581;28;20967;-47
2021/04/17 07:03:34;;;;;;;4.20;3.00;;;8.70;59.40;;;;;;5043831;28;21036;-47
2021/04/17 07:06:01;;;;;;;7.73;3.03;;;8.80;59.20;;;;;;5044467;28;20454;-47
2021/04/17 07:08:27;;;;;;;3.17;2.83;;;8.90;58.50;;;;;;5044201;28;20473;-47
2021/04/17 07:10:53;;;;;;;4.03;2.67;;;9.10;57.90;;;;;;5036672;28;20473;-47
2021/04/17 07:13:20;;;;;;;6.33;2.50;;;9.20;57.60;;;;;;5037691;28;20955;-48
2021/04/17 07:15:47;;;;;;;4.63;2.90;;;9.30;56.60;;;;;;5061796;28;20571;-48
2021/04/17 07:18:33;;;;;;;8.00;3.23;;;9.50;56.50;;;;;;5037627;28;20978;-47
2021/04/17 07:21:21;;;;;;;3.73;2.83;;;9.70;56.60;;;;;;5048986;28;20489;-47
2021/04/17 07:23:49;;;;;;;4.90;3.07;;;9.80;56.10;;;;;;5048395;28;20466;-47
2021/04/17 07:26:22;;;;;;;3.60;2.80;;;10.00;56.00;;;;;;5052268;28;20455;-47
2021/04/17 07:29:13;;;;;;;4.17;2.90;;;10.20;55.30;;;;;;5052355;28;20541;-47
2021/04/17 07:31:55;;;;;;;3.87;2.97;;;10.40;54.20;;;;;;5049857;28;20529;-47
2021/04/17 07:34:25;;;;;;;8.00;3.90;;;10.50;52.90;;;;;;5050738;28;20549;-48
2021/04/17 07:36:57;;;;;;;3.30;2.40;;;10.60;52.60;;;;;;5045531;28;20545;-47
2021/04/17 07:39:30;;;;;;;8.17;3.50;;;10.80;52.30;;;;;;5046248;28;20489;-47
2021/04/17 07:42:11;;;;;;;4.87;2.73;;;10.90;52.30;;;;;;5047419;28;20541;-48
2021/04/17 07:44:44;;;;;;;6.67;3.13;;;11.10;52.20;;;;;;5052027;28;20461;-48
2021/04/17 07:47:36;;;;;;;6.37;2.83;;;11.30;51.40;;;;;;5048489;28;20446;-48
2021/04/17 07:50:08;;;;;;;5.53;3.30;;;11.70;50.90;;;;;;5049395;28;20454;-48
2021/04/17 07:52:36;;;;;;;8.27;3.93;;;11.80;49.60;;;;;;5048810;28;20446;-48
2021/04/17 07:55:09;;;;;;;4.97;3.37;;;11.90;48.50;;;;;;5050424;28;20510;-48
2021/04/17 07:57:36;;;;;;;5.27;3.53;;;12.00;49.50;;;;;;5049962;28;20446;-49
2021/04/17 08:00:05;;;;;;;4.80;3.03;;;12.20;48.10;;;;;;5051972;28;20836;-48
2021/04/17 08:02:33;;;;;;;6.20;3.40;;;12.20;48.40;;;;;;5049776;28;20454;-48
2021/04/17 08:05:01;;;;;;;6.10;3.43;;;12.20;48.20;;;;;;5047194;28;20463;-48
2021/04/17 08:07:28;;;;;;;4.87;3.80;;;12.20;48.60;;;;;;5052459;28;20451;-48
2021/04/17 08:09:58;;;;;;;6.13;3.57;;;12.20;48.70;;;;;;5050865;28;20451;-48
2021/04/17 08:12:25;;;;;;;3.90;2.93;;;12.20;48.70;;;;;;5066741;28;20442;-48
2021/04/17 08:14:51;;;;;;;4.30;3.20;;;12.30;48.50;;;;;;5048241;28;21015;-48
2021/04/17 08:17:21;;;;;;;9.73;3.80;;;12.50;47.70;;;;;;5047907;28;20940;-49
2021/04/17 08:19:48;;;;;;;9.83;3.37;;;12.70;47.00;;;;;;5047116;28;20470;-48
2021/04/17 08:22:15;;;;;;;4.13;3.17;;;12.80;47.50;;;;;;5050109;28;20459;-48
2021/04/17 08:24:45;;;;;;;4.93;3.00;;;13.00;47.40;;;;;;5051300;28;20446;-48
2021/04/17 08:27:12;;;;;;;6.20;3.00;;;13.20;46.50;;;;;;5049370;28;20554;-48
2021/04/17 08:29:48;;;;;;;7.83;3.60;;;13.40;45.60;;;;;;5065777;28;20469;-48
2021/04/17 08:32:32;;;;;;;4.97;4.47;;;13.60;45.50;;;;;;5048076;28;20879;-48
2021/04/17 08:35:09;;;;;;;5.27;4.77;;;13.90;45.20;;;;;;5051282;28;20525;-48
2021/04/17 08:37:55;;;;;;;4.93;2.80;;;14.00;44.70;;;;;;5046027;28;20465;-49
2021/04/17 08:40:37;;;;;;;5.53;3.83;;;14.30;44.30;;;;;;5047833;28;20458;-48
2021/04/17 08:43:18;;;;;;;8.53;4.83;;;14.60;43.50;;;;;;5049697;28;20442;-48
2021/04/17 08:46:10;;;;;;;4.10;3.07;;;14.90;42.70;;;;;;5047859;28;20501;-48
2021/04/17 08:48:55;;;;;;;5.27;3.77;;;15.10;42.00;;;;;;5048226;28;20473;-48
2021/04/17 08:51:21;;;;;;;5.30;3.17;;;15.40;41.80;;;;;;5048594;28;20963;-48
2021/04/17 08:54:00;;;;;;;7.67;3.80;;;15.60;41.70;;;;;;5050057;28;20459;-48
2021/04/17 08:56:57;;;;;;;3.50;3.10;;;15.90;41.20;;;;;;5048703;28;20462;-48
2021/04/17 08:59:30;;;;;;;6.13;3.90;;;16.20;41.20;;;;;;5047630;28;20474;-48
2021/04/17 09:02:11;;;;;;;9.33;4.60;;;16.60;40.70;;;;;;5044248;28;20442;-48
2021/04/17 09:05:11;;;;;;;5.93;4.03;;;16.80;39.50;;;;;;5046781;28;20470;-48
2021/04/17 09:07:41;;;;;;;7.00;4.53;;;17.10;39.60;;;;;;5050583;28;20459;-48
2021/04/17 09:10:25;;;;;;;4.90;3.80;;;17.20;38.70;;;;;;5052027;28;20448;-48
2021/04/17 09:13:18;;;;;;;6.10;4.20;;;17.10;38.90;;;;;;5050108;28;20818;-48
2021/04/17 09:15:54;;;;;;;4.17;3.33;;;17.30;38.70;;;;;;5050663;28;20479;-48
2021/04/17 09:18:36;;;;;;;5.40;3.57;;;17.70;37.80;;;;;;5047577;28;22254;-48
2021/04/17 09:21:07;;;;;;;4.90;2.90;;;17.90;38.10;;;;;;5050149;28;20577;-48
2021/04/17 09:23:40;;;;;;;5.00;3.30;;;18.10;37.60;;;;;;5047727;28;20534;-48
2021/04/17 09:26:09;;;;;;;9.50;4.07;;;18.40;37.20;;;;;;5050682;28;20813;-48
2021/04/17 09:28:38;;;;;;;5.63;3.43;;;18.60;36.90;;;;;;5048073;28;20454;-48
2021/04/17 09:31:06;;;;;;;4.93;3.00;;;18.90;36.70;;;;;;5047474;28;20460;-48
2021/04/17 09:33:32;;;;;;;3.20;2.40;;;19.10;36.10;;;;;;5050007;28;20578;-48
2021/04/17 09:35:59;;;;;;;3.20;2.73;;;19.40;35.90;;;;;;5050351;28;20522;-48
2021/04/17 09:38:32;;;;;;;3.67;2.53;;;19.50;35.20;;;;;;5049992;28;20887;-48
2021/04/17 09:40:59;;;;;;;6.83;4.70;;;19.70;34.10;;;;;;5049506;28;20860;-48
2021/04/17 09:43:31;;;;;;;5.00;2.60;;;19.80;34.70;;;;;;5051370;28;20435;-48
2021/04/17 09:46:06;;;;;;;3.47;2.83;;;20.00;34.70;;;;;;5050801;28;20474;-48
2021/04/17 09:48:40;;;;;;;3.67;2.30;;;20.10;33.90;;;;;;5048872;28;20490;-48
2021/04/17 09:51:26;;;;;;;3.67;2.57;;;20.20;32.70;;;;;;5048776;28;20509;-48
2021/04/17 09:53:59;;;;;;;3.43;2.20;;;20.30;31.50;;;;;;5051019;28;20449;-49
2021/04/17 09:56:31;;;;;;;4.03;2.50;;;20.40;31.60;;;;;;5043706;28;20497;-48
2021/04/17 09:58:59;;;;;;;5.60;3.03;;;20.60;31.20;;;;;;5048190;28;20526;-49
2021/04/17 10:01:25;;;;;;;4.33;2.63;;;20.90;30.90;;;;;;5047670;28;20455;-48
2021/04/17 10:03:56;;;;;;;4.07;2.60;;;21.10;30.50;;;;;;5045375;28;20481;-48
2021/04/17 10:06:28;;;;;;;3.03;2.30;;;21.30;30.00;;;;;;5050471;28;20810;-48
2021/04/17 10:08:56;;;;;;;2.73;1.80;;;21.60;29.50;;;;;;5048655;28;20453;-48
2021/04/17 10:11:27;;;;;;;3.47;2.13;;;21.70;29.90;;;;;;5045938;28;20466;-49
2021/04/17 10:13:54;;;;;;;3.27;2.33;;;21.90;29.80;;;;;;5048979;28;20486;-48
2021/04/17 10:16:42;;;;;;;4.50;2.60;;;22.00;29.30;;;;;;5063884;28;20494;-48
2021/04/17 10:19:16;;;;;;;3.03;2.23;;;22.10;29.40;;;;;;5046729;28;20459;-48
2021/04/17 10:21:47;;;;;;;4.50;2.67;;;22.20;29.30;;;;;;5048601;28;20943;-49
2021/04/17 10:24:22;;;;;;;23.80;6.10;;;22.40;29.50;;;;;;5047729;28;20815;-48
2021/04/17 10:26:51;;;;;;;4.87;2.60;;;22.40;29.90;;;;;;5047919;28;20438;-48
2021/04/17 10:29:18;;;;;;;6.00;3.17;;;22.40;29.90;;;;;;5048129;28;20450;-49
2021/04/17 10:31:46;;;;;;;3.80;2.37;;;22.30;30.30;;;;;;5050036;28;20453;-48
2021/04/17 10:34:22;;;;;;;7.20;3.80;;;22.20;30.80;;;;;;5044806;28;20474;-48
2021/04/17 10:36:55;;;;;;;4.93;2.83;;;22.20;30.40;;;;;;5047631;28;20470;-48
2021/04/17 10:39:21;;;;;;;7.17;3.73;;;22.10;30.30;;;;;;5049626;28;20442;-48
2021/04/17 10:41:57;;;;;;;3.37;2.80;;;22.00;30.20;;;;;;5046804;28;20557;-49
2021/04/17 10:44:23;;;;;;;4.33;3.07;;;21.70;30.00;;;;;;5046745;28;20541;-48
2021/04/17 10:46:50;;;;;;;6.40;4.40;;;21.30;30.90;;;;;;5041397;28;20546;-48
2021/04/17 10:49:38;;;;;;;4.10;2.70;;;20.80;30.80;;;;;;5045162;28;20466;-48
2021/04/17 10:52:23;;;;;;;8.70;3.83;;;20.20;32.30;;;;;;5047190;28;20465;-48
2021/04/17 10:54:51;;;;;;;6.03;2.63;;;19.60;32.40;;;;;;5048732;28;21034;-48
2021/04/17 10:57:17;;;;;;;10.70;3.67;;;19.20;33.30;;;;;;5049184;28;20465;-48
2021/04/17 11:00:00;;;;;;;8.83;3.90;;;18.70;32.40;;;;;;5047985;28;20466;-48
2021/04/17 11:02:32;;;;;;;3.50;2.17;;;18.40;33.60;;;;;;5045507;28;21570;-48
2021/04/17 11:05:00;;;;;;;2.70;1.90;;;18.20;34.90;;;;;;5050128;28;20871;-48
2021/04/17 11:07:36;;;;;;;3.73;2.10;;;18.10;34.40;;;;;;5047930;28;20458;-48
2021/04/17 11:10:08;;;;;;;3.27;2.63;;;17.90;34.60;;;;;;5046190;28;20462;-48
2021/04/17 11:12:36;;;;;;;6.30;2.40;;;17.80;34.80;;;;;;5063749;28;20459;-48
2021/04/17 11:15:20;;;;;;;2.40;1.70;;;17.70;34.40;;;;;;5049555;28;21193;-48
2021/04/17 11:18:09;;;;;;;2.10;1.70;;;17.50;34.20;;;;;;5051194;28;20542;-48
2021/04/17 11:21:11;;;;;;;3.60;2.47;;;17.20;34.40;;;;;;5051265;28;20496;-49
2021/04/17 11:23:41;;;;;;;4.63;2.30;;;17.00;33.50;;;;;;5052997;28;20457;-48
2021/04/17 11:26:25;;;;;;;7.27;2.70;;;16.90;33.70;;;;;;5051946;28;20482;-48
2021/04/17 11:28:57;;;;;;;5.73;2.47;;;17.00;34.60;;;;;;5048162;28;20523;-48
2021/04/17 11:31:29;;;;;;;5.00;1.87;;;17.20;35.50;;;;;;5051264;28;20491;-48
2021/04/17 11:33:58;;;;;;;3.27;2.00;;;17.20;35.70;;;;;;5050432;28;20550;-48
2021/04/17 11:36:30;;;;;;;3.80;2.07;;;17.10;35.70;;;;;;5049767;28;20710;-48
2021/04/17 11:38:57;;;;;;;2.67;2.00;;;17.00;36.10;;;;;;5053209;28;20442;-48
2021/04/17 11:41:25;;;;;;;2.53;2.03;;;16.90;36.30;;;;;;5051059;28;20453;-48
2021/04/17 11:43:51;;;;;;;3.30;1.60;;;16.80;36.50;;;;;;5050367;28;20812;-48
2021/04/17 11:46:18;;;;;;;5.00;2.37;;;16.70;36.50;;;;;;5045672;28;20988;-48
2021/04/17 11:48:51;;;;;;;2.83;1.80;;;16.60;35.50;;;;;;5045044;28;20454;-48
2021/04/17 11:51:18;;;;;;;2.70;1.83;;;16.50;35.10;;;;;;5051394;28;20458;-48
2021/04/17 11:53:46;;;;;;;5.80;2.00;;;16.60;36.20;;;;;;5048680;28;20563;-48
2021/04/17 11:56:13;;;;;;;6.13;2.40;;;16.60;35.10;;;;;;5049612;28;20578;-48
2021/04/17 11:58:39;;;;;;;4.03;2.17;;;16.70;34.40;;;;;;5049085;28;20450;-48
2021/04/17 12:01:05;;;;;;;5.83;3.00;;;16.70;34.70;;;;;;5046260;28;20486;-48
2021/04/17 12:03:32;;;;;;;3.73;2.20;;;16.90;33.90;;;;;;5049409;28;20451;-48
2021/04/17 12:05:59;;;;;;;5.77;2.43;;;17.10;35.30;;;;;;5045803;28;20466;-48
2021/04/17 12:08:26;;;;;;;3.17;1.80;;;17.20;35.50;;;;;;5046827;28;20484;-48
2021/04/17 12:10:53;;;;;;;3.73;2.00;;;17.50;34.10;;;;;;5052656;28;20543;-48
2021/04/17 12:13:21;;;;;;;3.00;1.80;;;17.60;34.30;;;;;;5050425;28;20977;-48
2021/04/17 12:15:47;;;;;;;6.23;1.90;;;17.70;34.00;;;;;;5049463;28;20529;-48
2021/04/17 12:18:15;;;;;;;4.10;3.33;;;17.70;34.80;;;;;;5047311;28;20454;-48
2021/04/17 12:20:43;;;;;;;3.67;2.27;;;17.60;34.30;;;;;;5048878;28;20451;-48
2021/04/17 12:23:10;;;;;;;2.60;1.80;;;17.50;34.20;;;;;;5052325;28;20461;-49
2021/04/17 12:25:36;;;;;;;4.87;2.20;;;17.50;35.70;;;;;;5049898;28;20501;-49
2021/04/17 12:28:03;;;;;;;4.23;2.63;;;17.40;35.30;;;;;;5047147;28;20704;-48
2021/04/17 12:30:29;;;;;;;2.63;2.00;;;17.30;35.40;;;;;;5065451;28;20449;-48
2021/04/17 12:33:07;;;;;;;5.33;2.30;;;17.30;34.80;;;;;;5046020;28;20461;-49
2021/04/17 12:35:35;;;;;;;3.83;2.63;;;17.20;35.10;;;;;;5047899;28;20502;-48
2021/04/17 12:38:02;;;;;;;4.13;2.63;;;17.20;35.10;;;;;;5049258;28;20494;-48
2021/04/17 12:40:34;;;;;;;5.10;2.10;;;17.10;35.80;;;;;;5048023;28;20458;-48
2021/04/17 12:43:00;;;;;;;3.63;2.40;;;16.90;36.70;;;;;;5066255;28;20483;-48
2021/04/17 12:45:26;;;;;;;3.37;2.13;;;16.80;36.90;;;;;;5047902;28;20549;-48
2021/04/17 12:47:53;;;;;;;2.50;2.07;;;16.70;36.30;;;;;;5049947;28;20799;-48
2021/04/17 12:50:21;;;;;;;3.27;1.83;;;16.70;35.80;;;;;;5047132;28;20473;-48
2021/04/17 12:52:48;;;;;;;3.40;2.30;;;16.70;35.60;;;;;;5046320;28;20467;-49
2021/04/17 12:55:14;;;;;;;3.47;2.10;;;16.70;35.80;;;;;;5045534;28;20592;-48
2021/04/17 12:57:40;;;;;;;2.40;1.60;;;16.80;34.70;;;;;;5046089;28;20663;-48
2021/04/17 13:00:08;;;;;;;2.60;1.50;;;16.90;34.70;;;;;;5048283;28;20474;-48
2021/04/17 13:02:34;;;;;;;2.73;2.17;;;17.00;34.00;;;;;;5047004;28;20505;-48
2021/04/17 13:05:01;;;;;;;3.00;1.40;;;17.10;34.70;;;;;;5046302;28;20494;-48
2021/04/17 13:07:30;;;;;;;3.70;1.83;;;17.10;34.90;;;;;;5048843;28;20454;-48